sensor_id;sensor_type;location;lat;lon;timestamp;pressure;altitude;pressure_sealevel;temperature;humidity
73267;BME280;61495;53.400;7.608;2022-07-21T00:02:06;101651.53;;;21.95;61.59
73267;BME280;61495;53.400;7.608;2022-07-21T00:04:31;101668.53;;;22.02;62.32
73267;BME280;61495;53.400;7.608;2022-07-21T00:06:56;101642.25;;;21.91;61.13
73267;BME280;61495;53.400;7.608;2022-07-21T00:09:22;101649.09;;;21.93;61.35
73267;BME280;61495;53.400;7.608;2022-07-21T00:11:47;101639.44;;;21.86;61.55
73267;BME280;61495;53.400;7.608;2022-07-21T00:14:13;101633.41;;;21.84;62.08
73267;BME280;61495;53.400;7.608;2022-07-21T00:16:39;101640.22;;;21.81;61.48
73267;BME280;61495;53.400;7.608;2022-07-21T00:19:05;101655.31;;;21.89;61.57
73267;BME280;61495;53.400;7.608;2022-07-21T00:21:31;101633.63;;;21.77;61.71
73267;BME280;61495;53.400;7.608;2022-07-21T00:23:56;101628.41;;;21.71;62.67
73267;BME280;61495;53.400;7.608;2022-07-21T00:26:22;101640.44;;;21.75;62.34
73267;BME280;61495;53.400;7.608;2022-07-21T00:28:47;101630.53;;;21.64;63.12
73267;BME280;61495;53.400;7.608;2022-07-21T00:31:13;101654.38;;;21.73;62.66
73267;BME280;61495;53.400;7.608;2022-07-21T00:33:38;101656.25;;;21.73;63.73
73267;BME280;61495;53.400;7.608;2022-07-21T00:36:04;101655.69;;;21.71;62.76
73267;BME280;61495;53.400;7.608;2022-07-21T00:38:29;101650.53;;;21.74;63.20
73267;BME280;61495;53.400;7.608;2022-07-21T00:40:55;101653.53;;;21.73;62.88
73267;BME280;61495;53.400;7.608;2022-07-21T00:43:20;101637.06;;;21.63;63.71
73267;BME280;61495;53.400;7.608;2022-07-21T00:45:46;101645.31;;;21.68;63.46
73267;BME280;61495;53.400;7.608;2022-07-21T00:48:12;101634.31;;;21.57;63.44
73267;BME280;61495;53.400;7.608;2022-07-21T00:50:41;101654.56;;;21.67;63.87
73267;BME280;61495;53.400;7.608;2022-07-21T00:53:06;101657.81;;;21.64;62.75
73267;BME280;61495;53.400;7.608;2022-07-21T00:55:31;101637.22;;;21.46;63.44
73267;BME280;61495;53.400;7.608;2022-07-21T00:57:57;101662.72;;;21.62;64.25
73267;BME280;61495;53.400;7.608;2022-07-21T01:00:27;101667.06;;;21.63;63.82
73267;BME280;61495;53.400;7.608;2022-07-21T01:02:53;101670.91;;;21.62;64.75
73267;BME280;61495;53.400;7.608;2022-07-21T01:05:19;101676.59;;;21.60;63.68
73267;BME280;61495;53.400;7.608;2022-07-21T01:07:46;101688.34;;;21.60;64.14
73267;BME280;61495;53.400;7.608;2022-07-21T01:10:13;101707.69;;;21.59;64.36
73267;BME280;61495;53.400;7.608;2022-07-21T01:12:40;101742.91;;;21.60;65.42
73267;BME280;61495;53.400;7.608;2022-07-21T01:15:06;101782.13;;;21.54;66.32
73267;BME280;61495;53.400;7.608;2022-07-21T01:17:33;101847.59;;;21.54;65.68
73267;BME280;61495;53.400;7.608;2022-07-21T01:20:03;101892.69;;;21.40;65.50
73267;BME280;61495;53.400;7.608;2022-07-21T01:22:30;101904.59;;;21.34;66.90
73267;BME280;61495;53.400;7.608;2022-07-21T01:24:56;101900.84;;;21.19;67.29
73267;BME280;61495;53.400;7.608;2022-07-21T01:27:25;101908.84;;;21.25;66.60
73267;BME280;61495;53.400;7.608;2022-07-21T01:29:50;101847.13;;;21.19;66.66
73267;BME280;61495;53.400;7.608;2022-07-21T01:32:16;101871.28;;;21.32;67.56
73267;BME280;61495;53.400;7.608;2022-07-21T01:34:41;101815.53;;;21.23;66.41
73267;BME280;61495;53.400;7.608;2022-07-21T01:37:06;101783.94;;;21.22;66.49
73267;BME280;61495;53.400;7.608;2022-07-21T01:39:32;101808.28;;;21.29;67.14
73267;BME280;61495;53.400;7.608;2022-07-21T01:42:16;101784.13;;;21.16;66.83
73267;BME280;61495;53.400;7.608;2022-07-21T01:44:41;101794.88;;;21.27;68.16
73267;BME280;61495;53.400;7.608;2022-07-21T01:47:08;101760.00;;;21.29;66.75
73267;BME280;61495;53.400;7.608;2022-07-21T01:49:36;101672.47;;;21.26;68.42
73267;BME280;61495;53.400;7.608;2022-07-21T01:52:02;101543.69;;;21.14;67.97
73267;BME280;61495;53.400;7.608;2022-07-21T01:54:27;101522.75;;;21.19;70.15
73267;BME280;61495;53.400;7.608;2022-07-21T01:56:53;101510.56;;;21.00;70.36
73267;BME280;61495;53.400;7.608;2022-07-21T01:59:19;101594.66;;;21.13;69.70
73267;BME280;61495;53.400;7.608;2022-07-21T02:01:44;101644.22;;;21.10;69.39
73267;BME280;61495;53.400;7.608;2022-07-21T02:04:09;101653.63;;;21.02;68.87
73267;BME280;61495;53.400;7.608;2022-07-21T02:06:35;101627.22;;;21.03;67.71
73267;BME280;61495;53.400;7.608;2022-07-21T02:09:00;101603.28;;;21.05;68.04
73267;BME280;61495;53.400;7.608;2022-07-21T02:11:26;101602.13;;;21.01;69.02
73267;BME280;61495;53.400;7.608;2022-07-21T02:13:52;101593.91;;;20.96;67.70
73267;BME280;61495;53.400;7.608;2022-07-21T02:16:18;101593.97;;;21.01;68.66
73267;BME280;61495;53.400;7.608;2022-07-21T02:18:44;101586.94;;;21.05;68.48
73267;BME280;61495;53.400;7.608;2022-07-21T02:21:10;101573.75;;;20.97;68.58
73267;BME280;61495;53.400;7.608;2022-07-21T02:23:35;101575.59;;;20.91;68.46
73267;BME280;61495;53.400;7.608;2022-07-21T02:26:02;101605.41;;;21.03;69.40
73267;BME280;61495;53.400;7.608;2022-07-21T02:28:27;101606.75;;;21.00;68.15
73267;BME280;61495;53.400;7.608;2022-07-21T02:30:53;101604.84;;;21.01;68.58
73267;BME280;61495;53.400;7.608;2022-07-21T02:33:19;101602.59;;;20.93;68.23
73267;BME280;61495;53.400;7.608;2022-07-21T02:35:45;101588.47;;;20.96;68.20
73267;BME280;61495;53.400;7.608;2022-07-21T02:38:11;101596.31;;;20.92;68.14
73267;BME280;61495;53.400;7.608;2022-07-21T02:40:37;101588.84;;;20.83;68.92
73267;BME280;61495;53.400;7.608;2022-07-21T02:43:03;101619.69;;;20.88;70.39
73267;BME280;61495;53.400;7.608;2022-07-21T02:45:29;101627.03;;;20.88;68.64
73267;BME280;61495;53.400;7.608;2022-07-21T02:47:57;101633.84;;;20.85;69.57
73267;BME280;61495;53.400;7.608;2022-07-21T02:50:26;101656.50;;;20.91;70.07
73267;BME280;61495;53.400;7.608;2022-07-21T02:53:00;101667.34;;;20.86;72.13
73267;BME280;61495;53.400;7.608;2022-07-21T02:55:26;101679.59;;;20.83;71.84
73267;BME280;61495;53.400;7.608;2022-07-21T02:58:06;101679.53;;;20.78;71.78
73267;BME280;61495;53.400;7.608;2022-07-21T03:00:33;101657.94;;;20.72;70.50
73267;BME280;61495;53.400;7.608;2022-07-21T03:02:59;101667.69;;;20.68;70.02
73267;BME280;61495;53.400;7.608;2022-07-21T03:05:24;101657.47;;;20.58;72.31
73267;BME280;61495;53.400;7.608;2022-07-21T03:07:50;101652.84;;;20.59;71.53
73267;BME280;61495;53.400;7.608;2022-07-21T03:10:15;101641.97;;;20.59;70.37
73267;BME280;61495;53.400;7.608;2022-07-21T03:12:40;101651.34;;;20.68;70.63
73267;BME280;61495;53.400;7.608;2022-07-21T03:15:06;101654.00;;;20.63;71.51
73267;BME280;61495;53.400;7.608;2022-07-21T03:17:31;101659.19;;;20.64;71.13
73267;BME280;61495;53.400;7.608;2022-07-21T03:19:57;101668.69;;;20.62;70.00
73267;BME280;61495;53.400;7.608;2022-07-21T03:22:22;101658.81;;;20.56;72.32
73267;BME280;61495;53.400;7.608;2022-07-21T03:24:47;101660.59;;;20.67;70.99
73267;BME280;61495;53.400;7.608;2022-07-21T03:27:16;101645.50;;;20.59;72.79
73267;BME280;61495;53.400;7.608;2022-07-21T03:29:41;101641.13;;;20.58;71.82
73267;BME280;61495;53.400;7.608;2022-07-21T03:32:07;101620.88;;;20.49;71.92
73267;BME280;61495;53.400;7.608;2022-07-21T03:34:32;101643.63;;;20.60;71.15
73267;BME280;61495;53.400;7.608;2022-07-21T03:36:57;101626.81;;;20.46;71.47
73267;BME280;61495;53.400;7.608;2022-07-21T03:39:23;101635.91;;;20.52;73.93
73267;BME280;61495;53.400;7.608;2022-07-21T03:41:48;101649.56;;;20.57;72.79
73267;BME280;61495;53.400;7.608;2022-07-21T03:44:13;101617.25;;;20.43;71.99
73267;BME280;61495;53.400;7.608;2022-07-21T03:46:39;101609.19;;;20.48;72.15
73267;BME280;61495;53.400;7.608;2022-07-21T03:49:04;101625.56;;;20.54;73.40
73267;BME280;61495;53.400;7.608;2022-07-21T03:51:29;101608.53;;;20.41;72.42
73267;BME280;61495;53.400;7.608;2022-07-21T03:53:55;101627.78;;;20.57;71.53
73267;BME280;61495;53.400;7.608;2022-07-21T03:56:20;101590.84;;;20.44;72.20
73267;BME280;61495;53.400;7.608;2022-07-21T03:58:45;101598.28;;;20.48;71.08
73267;BME280;61495;53.400;7.608;2022-07-21T04:01:11;101593.97;;;20.52;72.81
73267;BME280;61495;53.400;7.608;2022-07-21T04:03:36;101582.97;;;20.42;73.53
73267;BME280;61495;53.400;7.608;2022-07-21T04:06:01;101600.41;;;20.46;71.18
73267;BME280;61495;53.400;7.608;2022-07-21T04:08:27;101581.81;;;20.38;74.11
73267;BME280;61495;53.400;7.608;2022-07-21T04:10:53;101591.13;;;20.42;72.11
73267;BME280;61495;53.400;7.608;2022-07-21T04:13:19;101600.09;;;20.43;71.71
73267;BME280;61495;53.400;7.608;2022-07-21T04:15:44;101599.84;;;20.44;71.92
73267;BME280;61495;53.400;7.608;2022-07-21T04:18:09;101570.38;;;20.36;72.27
73267;BME280;61495;53.400;7.608;2022-07-21T04:20:35;101579.22;;;20.48;72.69
73267;BME280;61495;53.400;7.608;2022-07-21T04:23:02;101564.47;;;20.44;71.54
73267;BME280;61495;53.400;7.608;2022-07-21T04:25:27;101551.81;;;20.33;72.16
73267;BME280;61495;53.400;7.608;2022-07-21T04:27:54;101570.47;;;20.46;72.80
73267;BME280;61495;53.400;7.608;2022-07-21T04:30:22;101564.47;;;20.44;73.47
73267;BME280;61495;53.400;7.608;2022-07-21T04:32:47;101546.38;;;20.33;72.38
73267;BME280;61495;53.400;7.608;2022-07-21T04:35:14;101548.25;;;20.33;74.50
73267;BME280;61495;53.400;7.608;2022-07-21T04:37:39;101560.03;;;20.38;72.38
73267;BME280;61495;53.400;7.608;2022-07-21T04:40:07;101562.38;;;20.30;72.17
73267;BME280;61495;53.400;7.608;2022-07-21T04:42:34;101593.84;;;20.42;73.47
73267;BME280;61495;53.400;7.608;2022-07-21T04:45:00;101601.44;;;20.40;72.32
73267;BME280;61495;53.400;7.608;2022-07-21T04:47:26;101591.56;;;20.34;71.71
73267;BME280;61495;53.400;7.608;2022-07-21T04:49:51;101597.09;;;20.39;73.67
73267;BME280;61495;53.400;7.608;2022-07-21T04:52:17;101608.53;;;20.41;74.44
73267;BME280;61495;53.400;7.608;2022-07-21T04:54:42;101592.69;;;20.38;72.52
73267;BME280;61495;53.400;7.608;2022-07-21T04:57:07;101601.94;;;20.37;74.00
73267;BME280;61495;53.400;7.608;2022-07-21T04:59:33;101589.28;;;20.26;72.67
73267;BME280;61495;53.400;7.608;2022-07-21T05:02:00;101610.69;;;20.39;72.90
73267;BME280;61495;53.400;7.608;2022-07-21T05:04:26;101588.78;;;20.29;72.39
73267;BME280;61495;53.400;7.608;2022-07-21T05:06:51;101595.38;;;20.33;72.52
73267;BME280;61495;53.400;7.608;2022-07-21T05:09:17;101586.59;;;20.31;73.77
73267;BME280;61495;53.400;7.608;2022-07-21T05:11:42;101601.63;;;20.34;73.05
73267;BME280;61495;53.400;7.608;2022-07-21T05:14:08;101592.06;;;20.31;73.91
73267;BME280;61495;53.400;7.608;2022-07-21T05:16:33;101594.88;;;20.36;72.87
73267;BME280;61495;53.400;7.608;2022-07-21T05:18:59;101594.88;;;20.36;73.25
73267;BME280;61495;53.400;7.608;2022-07-21T05:21:24;101604.66;;;20.37;73.39
73267;BME280;61495;53.400;7.608;2022-07-21T05:23:49;101598.59;;;20.30;73.30
73267;BME280;61495;53.400;7.608;2022-07-21T05:26:15;101606.59;;;20.37;73.99
73267;BME280;61495;53.400;7.608;2022-07-21T05:28:40;101582.78;;;20.27;72.77
73267;BME280;61495;53.400;7.608;2022-07-21T05:31:06;101605.75;;;20.36;75.49
73267;BME280;61495;53.400;7.608;2022-07-21T05:33:32;101601.13;;;20.37;73.48
73267;BME280;61495;53.400;7.608;2022-07-21T05:35:57;101606.81;;;20.35;72.45
73267;BME280;61495;53.400;7.608;2022-07-21T05:38:23;101602.75;;;20.38;73.36
73267;BME280;61495;53.400;7.608;2022-07-21T05:40:48;101597.00;;;20.34;73.26
73267;BME280;61495;53.400;7.608;2022-07-21T05:43:13;101605.25;;;20.39;74.14
73267;BME280;61495;53.400;7.608;2022-07-21T05:45:39;101609.59;;;20.40;74.56
73267;BME280;61495;53.400;7.608;2022-07-21T05:48:04;101612.97;;;20.47;72.80
73267;BME280;61495;53.400;7.608;2022-07-21T05:50:30;101606.38;;;20.43;73.91
73267;BME280;61495;53.400;7.608;2022-07-21T05:52:55;101607.19;;;20.44;76.95
73267;BME280;61495;53.400;7.608;2022-07-21T05:55:21;101606.97;;;20.45;74.23
73267;BME280;61495;53.400;7.608;2022-07-21T05:57:46;101613.97;;;20.41;75.02
73267;BME280;61495;53.400;7.608;2022-07-21T06:00:12;101617.63;;;20.52;74.04
73267;BME280;61495;53.400;7.608;2022-07-21T06:02:38;101609.69;;;20.45;74.63
73267;BME280;61495;53.400;7.608;2022-07-21T06:05:03;101597.13;;;20.44;73.89
73267;BME280;61495;53.400;7.608;2022-07-21T06:07:30;101613.53;;;20.49;73.34
73267;BME280;61495;53.400;7.608;2022-07-21T06:09:55;101624.75;;;20.53;73.94
73267;BME280;61495;53.400;7.608;2022-07-21T06:12:21;101632.16;;;20.58;74.19
73267;BME280;61495;53.400;7.608;2022-07-21T06:14:46;101627.47;;;20.53;75.58
73267;BME280;61495;53.400;7.608;2022-07-21T06:17:12;101631.66;;;20.61;73.62
73267;BME280;61495;53.400;7.608;2022-07-21T06:19:37;101629.44;;;20.58;75.31
73267;BME280;61495;53.400;7.608;2022-07-21T06:22:03;101635.50;;;20.65;76.13
73267;BME280;61495;53.400;7.608;2022-07-21T06:24:29;101643.22;;;20.73;73.58
73267;BME280;61495;53.400;7.608;2022-07-21T06:26:54;101636.97;;;20.72;73.57
73267;BME280;61495;53.400;7.608;2022-07-21T06:29:23;101635.38;;;20.76;73.82
73267;BME280;61495;53.400;7.608;2022-07-21T06:31:49;101630.75;;;20.77;73.60
73267;BME280;61495;53.400;7.608;2022-07-21T06:34:15;101640.13;;;20.86;73.59
73267;BME280;61495;53.400;7.608;2022-07-21T06:36:40;101630.28;;;20.85;73.65
73267;BME280;61495;53.400;7.608;2022-07-21T06:39:06;101614.97;;;20.79;72.67
73267;BME280;61495;53.400;7.608;2022-07-21T06:41:31;101627.72;;;21.00;73.91
73267;BME280;61495;53.400;7.608;2022-07-21T06:43:57;101602.53;;;20.88;72.85
73267;BME280;61495;53.400;7.608;2022-07-21T06:46:22;101624.44;;;20.98;74.08
73267;BME280;61495;53.400;7.608;2022-07-21T06:48:47;101638.78;;;21.10;72.93
73267;BME280;61495;53.400;7.608;2022-07-21T06:51:13;101617.66;;;21.00;73.86
73267;BME280;61495;53.400;7.608;2022-07-21T06:53:38;101633.97;;;21.17;72.89
73267;BME280;61495;53.400;7.608;2022-07-21T06:56:04;101605.72;;;21.06;71.53
73267;BME280;61495;53.400;7.608;2022-07-21T06:58:29;101617.00;;;21.15;72.35
73267;BME280;61495;53.400;7.608;2022-07-21T07:00:55;101612.22;;;21.27;72.22
73267;BME280;61495;53.400;7.608;2022-07-21T07:03:21;101604.25;;;21.21;71.70
73267;BME280;61495;53.400;7.608;2022-07-21T07:05:47;101610.69;;;21.36;72.08
73267;BME280;61495;53.400;7.608;2022-07-21T07:08:13;101610.16;;;21.39;70.97
73267;BME280;61495;53.400;7.608;2022-07-21T07:10:40;101612.72;;;21.51;70.53
73267;BME280;61495;53.400;7.608;2022-07-21T07:13:05;101606.19;;;21.52;70.60
73267;BME280;61495;53.400;7.608;2022-07-21T07:15:31;101591.16;;;21.49;71.32
73267;BME280;61495;53.400;7.608;2022-07-21T07:17:56;101586.00;;;21.53;71.09
73267;BME280;61495;53.400;7.608;2022-07-21T07:20:22;101573.19;;;21.53;70.31
73267;BME280;61495;53.400;7.608;2022-07-21T07:22:48;101591.84;;;21.72;70.77
73267;BME280;61495;53.400;7.608;2022-07-21T07:25:14;101603.94;;;21.81;71.95
73267;BME280;61495;53.400;7.608;2022-07-21T07:27:45;101605.06;;;21.85;72.08
73267;BME280;61495;53.400;7.608;2022-07-21T07:30:11;101607.50;;;21.86;72.36
73267;BME280;61495;53.400;7.608;2022-07-21T07:32:37;101600.16;;;21.87;70.83
73267;BME280;61495;53.400;7.608;2022-07-21T07:35:02;101604.06;;;21.96;69.92
73267;BME280;61495;53.400;7.608;2022-07-21T07:37:28;101594.69;;;21.87;71.22
73267;BME280;61495;53.400;7.608;2022-07-21T07:39:53;101601.63;;;21.99;71.14
73267;BME280;61495;53.400;7.608;2022-07-21T07:42:19;101608.47;;;22.02;71.79
73267;BME280;61495;53.400;7.608;2022-07-21T07:44:44;101603.25;;;22.00;71.76
73267;BME280;61495;53.400;7.608;2022-07-21T07:47:11;101617.50;;;22.07;71.28
73267;BME280;61495;53.400;7.608;2022-07-21T07:49:37;101604.06;;;21.96;72.54
73267;BME280;61495;53.400;7.608;2022-07-21T07:52:02;101607.13;;;22.04;71.52
73267;BME280;61495;53.400;7.608;2022-07-21T07:54:28;101613.66;;;22.03;71.68
73267;BME280;61495;53.400;7.608;2022-07-21T07:56:53;101634.50;;;22.14;71.94
73267;BME280;61495;53.400;7.608;2022-07-21T07:59:18;101616.66;;;22.02;71.88
73267;BME280;61495;53.400;7.608;2022-07-21T08:01:44;101632.53;;;22.10;71.18
73267;BME280;61495;53.400;7.608;2022-07-21T08:04:09;101639.72;;;22.21;71.46
73267;BME280;61495;53.400;7.608;2022-07-21T08:06:34;101632.59;;;22.20;73.21
73267;BME280;61495;53.400;7.608;2022-07-21T08:09:00;101648.53;;;22.38;73.79
73267;BME280;61495;53.400;7.608;2022-07-21T08:11:25;101662.22;;;22.43;72.75
73267;BME280;61495;53.400;7.608;2022-07-21T08:13:51;101644.16;;;22.37;72.46
73267;BME280;61495;53.400;7.608;2022-07-21T08:16:17;101644.75;;;22.44;70.77
73267;BME280;61495;53.400;7.608;2022-07-21T08:18:43;101647.50;;;22.54;70.22
73267;BME280;61495;53.400;7.608;2022-07-21T08:21:09;101666.63;;;22.54;71.32
73267;BME280;61495;53.400;7.608;2022-07-21T08:23:35;101667.09;;;22.36;72.06
73267;BME280;61495;53.400;7.608;2022-07-21T08:26:01;101651.75;;;22.30;70.78
73267;BME280;61495;53.400;7.608;2022-07-21T08:28:26;101661.06;;;22.34;70.18
73267;BME280;61495;53.400;7.608;2022-07-21T08:30:51;101658.22;;;22.14;71.89
73267;BME280;61495;53.400;7.608;2022-07-21T08:33:17;101669.69;;;22.16;70.61
73267;BME280;61495;53.400;7.608;2022-07-21T08:35:42;101664.19;;;22.06;71.11
73267;BME280;61495;53.400;7.608;2022-07-21T08:38:09;101672.28;;;21.96;72.10
73267;BME280;61495;53.400;7.608;2022-07-21T08:40:38;101655.22;;;21.79;71.54
73267;BME280;61495;53.400;7.608;2022-07-21T08:43:05;101677.75;;;21.96;70.04
73267;BME280;61495;53.400;7.608;2022-07-21T08:45:31;101668.44;;;21.92;69.77
73267;BME280;61495;53.400;7.608;2022-07-21T08:47:58;101668.44;;;21.92;70.63
73267;BME280;61495;53.400;7.608;2022-07-21T08:50:36;101650.47;;;21.64;73.02
73267;BME280;61495;53.400;7.608;2022-07-21T08:53:02;101663.94;;;21.76;71.28
73267;BME280;61495;53.400;7.608;2022-07-21T08:55:32;101643.25;;;21.53;72.65
73267;BME280;61495;53.400;7.608;2022-07-21T08:57:58;101673.72;;;21.72;70.79
73267;BME280;61495;53.400;7.608;2022-07-21T09:00:24;101667.66;;;21.65;70.13
73267;BME280;61495;53.400;7.608;2022-07-21T09:03:28;101673.16;;;21.70;71.31
73267;BME280;61495;53.400;7.608;2022-07-21T09:06:00;101673.41;;;21.68;71.08
73267;BME280;61495;53.400;7.608;2022-07-21T09:08:31;101677.22;;;21.67;69.97
73267;BME280;61495;53.400;7.608;2022-07-21T09:11:10;101679.13;;;21.67;71.59
73267;BME280;61495;53.400;7.608;2022-07-21T09:13:36;101673.13;;;21.65;70.50
73267;BME280;61495;53.400;7.608;2022-07-21T09:16:01;101662.09;;;21.54;71.32
73267;BME280;61495;53.400;7.608;2022-07-21T09:18:27;101647.34;;;21.50;69.84
73267;BME280;61495;53.400;7.608;2022-07-21T09:20:53;101668.78;;;21.69;72.58
73267;BME280;61495;53.400;7.608;2022-07-21T09:23:22;101648.78;;;21.58;70.45
73267;BME280;61495;53.400;7.608;2022-07-21T09:25:51;101671.53;;;21.74;72.11
73267;BME280;61495;53.400;7.608;2022-07-21T09:28:26;101673.28;;;21.85;70.33
73267;BME280;61495;53.400;7.608;2022-07-21T09:33:24;101675.56;;;21.98;70.33
73267;BME280;61495;53.400;7.608;2022-07-21T09:38:25;101660.84;;;21.99;70.85
73267;BME280;61495;53.400;7.608;2022-07-21T09:40:51;101669.41;;;22.12;69.88
73267;BME280;61495;53.400;7.608;2022-07-21T09:46:17;101676.38;;;22.35;69.58
73267;BME280;61495;53.400;7.608;2022-07-21T09:48:45;101674.19;;;22.37;69.63
73267;BME280;61495;53.400;7.608;2022-07-21T09:51:23;101671.47;;;22.37;70.41
73267;BME280;61495;53.400;7.608;2022-07-21T09:53:57;101678.06;;;22.41;69.82
73267;BME280;61495;53.400;7.608;2022-07-21T09:56:24;101650.66;;;22.21;70.02
73267;BME280;61495;53.400;7.608;2022-07-21T09:58:52;101661.59;;;22.31;69.80
73267;BME280;61495;53.400;7.608;2022-07-21T10:01:18;101686.19;;;22.36;70.44
73267;BME280;61495;53.400;7.608;2022-07-21T10:03:45;101667.38;;;22.35;69.09
73267;BME280;61495;53.400;7.608;2022-07-21T10:06:11;101672.91;;;22.45;69.13
73267;BME280;61495;53.400;7.608;2022-07-21T10:08:37;101679.16;;;22.45;69.09
73267;BME280;61495;53.400;7.608;2022-07-21T10:11:04;101658.63;;;22.33;71.50
73267;BME280;61495;53.400;7.608;2022-07-21T10:13:30;101655.63;;;22.39;70.24
73267;BME280;61495;53.400;7.608;2022-07-21T10:15:57;101676.19;;;22.52;70.82
73267;BME280;61495;53.400;7.608;2022-07-21T10:18:25;101654.63;;;22.50;70.63
73267;BME280;61495;53.400;7.608;2022-07-21T10:20:55;101671.03;;;22.60;71.42
73267;BME280;61495;53.400;7.608;2022-07-21T10:25:54;101665.03;;;22.63;70.62
73267;BME280;61495;53.400;7.608;2022-07-21T10:28:22;101668.13;;;22.72;71.61
73267;BME280;61495;53.400;7.608;2022-07-21T10:33:16;101671.72;;;22.88;70.30
73267;BME280;61495;53.400;7.608;2022-07-21T10:35:46;101660.81;;;22.88;70.24
73267;BME280;61495;53.400;7.608;2022-07-21T10:38:26;101664.13;;;23.00;70.22
73267;BME280;61495;53.400;7.608;2022-07-21T10:40:53;101660.84;;;23.03;69.25
73267;BME280;61495;53.400;7.608;2022-07-21T10:45:50;101672.91;;;23.17;68.59
73267;BME280;61495;53.400;7.608;2022-07-21T10:51:15;101659.22;;;23.17;67.75
73267;BME280;61495;53.400;7.608;2022-07-21T10:53:42;101656.25;;;23.18;67.28
73267;BME280;61495;53.400;7.608;2022-07-21T10:56:25;101649.94;;;23.28;67.49
73267;BME280;61495;53.400;7.608;2022-07-21T10:58:51;101657.06;;;23.34;66.59
73267;BME280;61495;53.400;7.608;2022-07-21T11:01:22;101654.34;;;23.34;66.45
73267;BME280;61495;53.400;7.608;2022-07-21T11:04:11;101656.59;;;23.42;65.99
73267;BME280;61495;53.400;7.608;2022-07-21T11:06:40;101663.94;;;23.52;65.90
73267;BME280;61495;53.400;7.608;2022-07-21T11:11:35;101675.75;;;23.57;66.49
73267;BME280;61495;53.400;7.608;2022-07-21T11:24:30;101678.47;;;23.62;66.54
73267;BME280;61495;53.400;7.608;2022-07-21T11:27:04;101675.75;;;23.57;67.42
73267;BME280;61495;53.400;7.608;2022-07-21T11:29:32;101664.78;;;23.47;67.08
73267;BME280;61495;53.400;7.608;2022-07-21T11:31:58;101653.28;;;23.40;66.53
73267;BME280;61495;53.400;7.608;2022-07-21T11:34:37;101674.91;;;23.47;67.27
73267;BME280;61495;53.400;7.608;2022-07-21T11:37:02;101675.16;;;23.40;66.94
73267;BME280;61495;53.400;7.608;2022-07-21T11:39:28;101649.41;;;23.21;67.62
73267;BME280;61495;53.400;7.608;2022-07-21T11:41:53;101649.13;;;23.12;65.98
73267;BME280;61495;53.400;7.608;2022-07-21T11:44:25;101676.75;;;23.26;67.43
73267;BME280;61495;53.400;7.608;2022-07-21T11:46:55;101664.97;;;23.10;66.57
73267;BME280;61495;53.400;7.608;2022-07-21T11:49:21;101685.50;;;23.18;66.99
73267;BME280;61495;53.400;7.608;2022-07-21T11:52:09;101676.72;;;23.11;67.42
73267;BME280;61495;53.400;7.608;2022-07-21T11:54:45;101678.91;;;23.09;66.96
73267;BME280;61495;53.400;7.608;2022-07-21T11:57:12;101670.13;;;22.97;66.91
73267;BME280;61495;53.400;7.608;2022-07-21T11:59:39;101678.06;;;22.98;66.98
73267;BME280;61495;53.400;7.608;2022-07-21T12:02:09;101673.41;;;22.99;66.83
73267;BME280;61495;53.400;7.608;2022-07-21T12:04:37;101673.94;;;22.96;67.13
73267;BME280;61495;53.400;7.608;2022-07-21T12:07:06;101652.59;;;22.83;66.89
73267;BME280;61495;53.400;7.608;2022-07-21T12:09:33;101653.66;;;22.82;66.45
73267;BME280;61495;53.400;7.608;2022-07-21T12:11:58;101669.00;;;22.93;67.44
73267;BME280;61495;53.400;7.608;2022-07-21T12:14:40;101672.03;;;22.91;67.75
73267;BME280;61495;53.400;7.608;2022-07-21T12:17:05;101639.16;;;22.71;67.27
73267;BME280;61495;53.400;7.608;2022-07-21T12:19:31;101659.69;;;22.84;67.08
73267;BME280;61495;53.400;7.608;2022-07-21T12:21:56;101634.25;;;22.73;66.83
73267;BME280;61495;53.400;7.608;2022-07-21T12:24:52;101657.53;;;22.86;68.15
73267;BME280;61495;53.400;7.608;2022-07-21T12:27:18;101654.22;;;22.84;67.87
73267;BME280;61495;53.400;7.608;2022-07-21T12:29:44;101653.41;;;22.83;67.07
73267;BME280;61495;53.400;7.608;2022-07-21T12:32:09;101649.28;;;22.81;67.74
73267;BME280;61495;53.400;7.608;2022-07-21T12:34:51;101644.34;;;22.73;69.00
73267;BME280;61495;53.400;7.608;2022-07-21T12:37:17;101639.16;;;22.71;67.29
73267;BME280;61495;53.400;7.608;2022-07-21T12:40:00;101648.72;;;22.74;67.99
73267;BME280;61495;53.400;7.608;2022-07-21T12:42:35;101634.97;;;22.63;68.17
73267;BME280;61495;53.400;7.608;2022-07-21T12:47:42;101630.63;;;22.62;68.12
73267;BME280;61495;53.400;7.608;2022-07-21T12:50:13;101645.41;;;22.66;68.74
73267;BME280;61495;53.400;7.608;2022-07-21T12:52:39;101659.13;;;22.77;68.41
73267;BME280;61495;53.400;7.608;2022-07-21T12:55:05;101656.38;;;22.72;68.35
73267;BME280;61495;53.400;7.608;2022-07-21T12:57:32;101662.41;;;22.79;68.96
73267;BME280;61495;53.400;7.608;2022-07-21T12:59:58;101651.47;;;22.74;68.63
73267;BME280;61495;53.400;7.608;2022-07-21T13:02:25;101649.81;;;22.78;68.50
73267;BME280;61495;53.400;7.608;2022-07-21T13:04:52;101649.81;;;22.78;68.76
73267;BME280;61495;53.400;7.608;2022-07-21T13:09:43;101644.69;;;22.86;69.77
73267;BME280;61495;53.400;7.608;2022-07-21T13:12:13;101638.38;;;22.86;70.09
73267;BME280;61495;53.400;7.608;2022-07-21T13:14:40;101636.19;;;22.93;70.20
73267;BME280;61495;53.400;7.608;2022-07-21T13:17:06;101626.91;;;22.94;69.63
73267;BME280;61495;53.400;7.608;2022-07-21T13:19:32;101637.59;;;23.00;68.95
73267;BME280;61495;53.400;7.608;2022-07-21T13:21:57;101640.63;;;23.09;68.96
73267;BME280;61495;53.400;7.608;2022-07-21T13:24:23;101639.56;;;23.15;68.96
73267;BME280;61495;53.400;7.608;2022-07-21T13:26:48;101637.91;;;23.14;71.67